Time;durP1;ratioP1;P1;durP2;ratioP2;P2;SDS_P1;SDS_P2;PMS_P1;PMS_P2;Temp;Humidity;BMP_temperature;BMP_pressure;BME280_temperature;BME280_humidity;BME280_pressure;Samples;Min_cycle;Max_cycle;Signal;HPM_P1;HPM_P2
2022/06/24 00:00:37;;;;;;;4.18;3.42;;;19.60;82.30;;;;;;5115763;27;20024;-47
2022/06/24 00:03:03;;;;;;;7.00;3.40;;;19.60;82.10;;;;;;5112442;27;20302;-46
2022/06/24 00:05:29;;;;;;;4.85;3.72;;;19.50;82.20;;;;;;5093729;28;20027;-46
2022/06/24 00:07:56;;;;;;;5.82;3.47;;;19.50;82.20;;;;;;5128885;27;20038;-45
2022/06/24 00:10:24;;;;;;;5.32;3.70;;;19.50;82.30;;;;;;5132800;27;20030;-46
2022/06/24 00:12:51;;;;;;;4.15;3.20;;;19.40;82.40;;;;;;5114464;27;20044;-45
2022/06/24 00:15:36;;;;;;;4.97;3.63;;;19.40;82.40;;;;;;5093658;28;20444;-47
2022/06/24 00:18:16;;;;;;;5.65;4.57;;;19.50;82.40;;;;;;5128111;27;20072;-45
2022/06/24 00:20:44;;;;;;;4.75;3.60;;;19.50;82.20;;;;;;5111235;28;20034;-48
2022/06/24 00:23:10;;;;;;;4.45;3.33;;;19.40;82.00;;;;;;5111433;27;20051;-45
2022/06/24 00:25:37;;;;;;;4.60;3.15;;;19.50;82.00;;;;;;5111160;27;20028;-46
2022/06/24 00:28:11;;;;;;;5.40;3.70;;;19.40;81.90;;;;;;5093161;28;20123;-46
2022/06/24 00:30:42;;;;;;;4.65;3.17;;;19.40;81.90;;;;;;5111139;27;20039;-47
2022/06/24 00:33:12;;;;;;;4.53;3.20;;;19.40;81.70;;;;;;5111321;28;20108;-45
2022/06/24 00:35:41;;;;;;;;;;;19.40;81.50;;;;;;5093487;28;20027;-46
2022/06/24 00:38:34;;;;;;;5.03;3.20;;;19.40;81.60;;;;;;5093352;28;19943;-45
2022/06/24 00:41:05;;;;;;;7.55;3.78;;;19.30;81.70;;;;;;5110756;28;20043;-45
2022/06/24 00:43:36;;;;;;;5.57;3.88;;;19.30;81.70;;;;;;5110873;28;20114;-45
2022/06/24 00:46:17;;;;;;;4.07;3.25;;;19.20;81.80;;;;;;5118756;27;20031;-45
2022/06/24 00:48:57;;;;;;;5.78;3.30;;;19.20;81.90;;;;;;5095029;27;20475;-45
2022/06/24 00:51:32;;;;;;;6.20;3.55;;;19.10;81.90;;;;;;5110964;28;20445;-45
2022/06/24 00:54:06;;;;;;;6.18;3.35;;;19.10;81.80;;;;;;5093421;27;20048;-46
2022/06/24 00:56:32;;;;;;;6.03;3.65;;;19.10;81.90;;;;;;5131653;27;20032;-47
2022/06/24 00:59:01;;;;;;;4.85;3.20;;;19.00;82.10;;;;;;5103987;27;20024;-45
2022/06/24 01:01:34;;;;;;;6.43;3.80;;;18.90;82.30;;;;;;5127060;27;20099;-46
2022/06/24 01:04:01;;;;;;;5.28;3.80;;;18.90;82.50;;;;;;5110508;28;20024;-45
2022/06/24 01:06:28;;;;;;;10.50;3.90;;;18.90;82.60;;;;;;5110268;28;20111;-46
2022/06/24 01:08:55;;;;;;;5.10;3.83;;;18.90;82.70;;;;;;5110429;28;20039;-45
2022/06/24 01:11:32;;;;;;;4.07;3.15;;;18.90;82.60;;;;;;5110271;28;20042;-47
2022/06/24 01:14:01;;;;;;;5.40;3.60;;;18.90;82.50;;;;;;5110367;28;20019;-46
2022/06/24 01:16:27;;;;;;;6.72;3.40;;;18.90;82.50;;;;;;5091841;28;20333;-45
2022/06/24 01:19:02;;;;;;;5.88;3.65;;;18.90;82.70;;;;;;5121396;27;20051;-45
2022/06/24 01:21:47;;;;;;;8.25;3.65;;;18.90;82.70;;;;;;5110191;28;20026;-47
2022/06/24 01:24:20;;;;;;;5.18;3.88;;;18.90;82.80;;;;;;5109706;28;20051;-46
2022/06/24 01:26:52;;;;;;;6.40;3.50;;;18.80;82.50;;;;;;5110032;28;20098;-45
2022/06/24 01:29:19;;;;;;;4.95;3.63;;;18.90;82.40;;;;;;5109296;27;20035;-45
2022/06/24 01:31:48;;;;;;;6.43;4.15;;;18.90;82.20;;;;;;5110231;28;20092;-45
2022/06/24 01:34:15;;;;;;;5.88;3.92;;;18.80;82.10;;;;;;5124618;27;20027;-46
2022/06/24 01:36:41;;;;;;;5.45;4.22;;;18.90;82.10;;;;;;5130182;27;20035;-45
2022/06/24 01:39:07;;;;;;;4.88;3.85;;;18.80;81.90;;;;;;5127589;27;20034;-46
2022/06/24 01:41:33;;;;;;;5.63;3.80;;;18.80;82.30;;;;;;5096111;28;20020;-45
2022/06/24 01:44:02;;;;;;;9.55;3.45;;;18.80;82.30;;;;;;5109941;28;20016;-45
2022/06/24 01:46:29;;;;;;;4.82;3.63;;;18.80;82.30;;;;;;5120869;27;20031;-46
2022/06/24 01:48:54;;;;;;;5.18;4.68;;;18.80;82.40;;;;;;5112294;27;20088;-48
2022/06/24 01:51:22;;;;;;;6.38;4.50;;;18.70;82.10;;;;;;5129125;27;20597;-45
2022/06/24 01:53:47;;;;;;;5.53;4.28;;;18.70;82.10;;;;;;5129765;27;20031;-45
2022/06/24 01:56:17;;;;;;;6.97;4.15;;;18.70;81.90;;;;;;5118756;27;20034;-45
2022/06/24 01:58:43;;;;;;;4.78;3.85;;;18.60;81.50;;;;;;5109673;28;20034;-45
2022/06/24 02:01:09;;;;;;;7.82;3.67;;;18.60;81.00;;;;;;5114559;27;20027;-47
2022/06/24 02:03:40;;;;;;;6.82;4.22;;;18.60;80.50;;;;;;5125609;27;20046;-45
2022/06/24 02:06:08;;;;;;;6.15;3.67;;;18.60;80.20;;;;;;5112318;28;20020;-45
2022/06/24 02:08:34;;;;;;;5.35;3.97;;;18.60;79.50;;;;;;5109390;28;20038;-45
2022/06/24 02:13:47;;;;;;;4.05;3.40;;;18.60;79.00;;;;;;5110098;28;20034;-46
2022/06/24 02:16:14;;;;;;;5.45;3.60;;;18.60;78.40;;;;;;5120707;28;20027;-45
2022/06/24 02:18:40;;;;;;;4.93;3.97;;;18.70;78.30;;;;;;5128200;28;20686;-45
2022/06/24 02:21:05;;;;;;;5.55;3.60;;;18.60;77.90;;;;;;5130001;28;20023;-45
2022/06/24 02:23:34;;;;;;;5.82;3.20;;;18.60;77.70;;;;;;5109927;28;20321;-45
2022/06/24 02:26:00;;;;;;;3.83;3.22;;;18.60;77.60;;;;;;5109453;28;20357;-46
2022/06/24 02:28:26;;;;;;;6.72;3.75;;;18.60;77.60;;;;;;5109237;28;20024;-45
2022/06/24 02:30:53;;;;;;;8.90;4.25;;;18.60;77.50;;;;;;5109330;28;20024;-45
2022/06/24 02:33:19;;;;;;;4.72;3.50;;;18.60;77.20;;;;;;5109170;28;20027;-45
2022/06/24 02:35:45;;;;;;;7.18;3.38;;;18.60;77.20;;;;;;5111400;28;20031;-45
2022/06/24 02:38:10;;;;;;;5.00;3.25;;;18.60;76.80;;;;;;5109076;28;20020;-47
2022/06/24 02:40:45;;;;;;;7.10;3.60;;;18.60;76.50;;;;;;5108369;28;20510;-46
2022/06/24 02:43:19;;;;;;;4.22;3.45;;;18.60;76.50;;;;;;5108782;28;20364;-45
2022/06/24 02:46:04;;;;;;;11.30;4.30;;;18.60;76.30;;;;;;5092041;28;20116;-45
2022/06/24 02:48:31;;;;;;;6.25;3.13;;;18.60;76.20;;;;;;5103090;28;20055;-45
2022/06/24 02:50:59;;;;;;;5.63;3.45;;;18.70;75.80;;;;;;5119321;28;20031;-45
2022/06/24 02:53:26;;;;;;;4.65;3.22;;;18.70;75.70;;;;;;5096347;28;20516;-45
2022/06/24 02:55:54;;;;;;;8.65;3.58;;;18.70;75.80;;;;;;5108735;28;20456;-45
2022/06/24 02:58:20;;;;;;;8.73;3.30;;;18.70;75.60;;;;;;5124009;28;20031;-45
2022/06/24 03:00:45;;;;;;;4.75;3.35;;;18.70;75.30;;;;;;5129593;28;20043;-45
2022/06/24 03:03:14;;;;;;;4.95;3.35;;;18.70;75.30;;;;;;5123271;28;20020;-45
2022/06/24 03:05:43;;;;;;;4.47;2.97;;;18.70;75.20;;;;;;5129717;28;20039;-46
2022/06/24 03:08:11;;;;;;;5.60;3.78;;;18.70;75.30;;;;;;5115214;28;20027;-46
2022/06/24 03:10:37;;;;;;;5.20;3.13;;;18.70;75.20;;;;;;5091524;28;20038;-45
2022/06/24 03:13:04;;;;;;;7.72;3.53;;;18.70;74.80;;;;;;5108573;28;20044;-45
2022/06/24 03:15:34;;;;;;;7.40;3.38;;;18.70;74.40;;;;;;5108788;28;20046;-47
2022/06/24 03:18:00;;;;;;;6.05;3.63;;;18.70;74.30;;;;;;5108939;28;20103;-46
2022/06/24 03:20:27;;;;;;;5.25;3.42;;;18.70;74.20;;;;;;5090644;28;20110;-45
2022/06/24 03:22:55;;;;;;;6.00;3.83;;;18.70;74.20;;;;;;5108974;28;20028;-45
2022/06/24 03:25:21;;;;;;;4.50;3.47;;;18.80;74.20;;;;;;5126925;27;20060;-46
2022/06/24 03:27:47;;;;;;;4.90;3.75;;;18.80;74.00;;;;;;5132970;27;20019;-47
2022/06/24 03:30:13;;;;;;;3.67;2.53;;;18.80;74.10;;;;;;5131736;27;20042;-45
2022/06/24 03:32:42;;;;;;;5.75;3.30;;;18.80;74.30;;;;;;5114722;27;20380;-45
2022/06/24 03:35:10;;;;;;;5.85;3.42;;;18.80;74.00;;;;;;5117755;27;20024;-45
2022/06/24 03:37:36;;;;;;;4.35;3.15;;;18.80;73.90;;;;;;5112486;28;20059;-45
2022/06/24 03:40:04;;;;;;;4.82;3.42;;;18.90;73.50;;;;;;5124195;27;20062;-46
2022/06/24 03:42:30;;;;;;;6.80;3.42;;;18.90;73.50;;;;;;5132892;27;20054;-45
2022/06/24 03:44:56;;;;;;;4.05;3.17;;;18.90;73.60;;;;;;5130317;27;20066;-46
2022/06/24 03:47:22;;;;;;;4.88;3.05;;;18.90;73.70;;;;;;5112029;28;20019;-46
2022/06/24 03:49:50;;;;;;;5.45;3.63;;;18.90;73.80;;;;;;5112002;27;20035;-46
2022/06/24 03:52:16;;;;;;;5.68;3.97;;;18.90;73.50;;;;;;5112087;28;20470;-45
2022/06/24 03:54:42;;;;;;;6.13;3.42;;;18.90;73.90;;;;;;5111024;27;20106;-45
2022/06/24 03:57:07;;;;;;;4.78;3.38;;;18.90;73.60;;;;;;5077197;28;20023;-45
2022/06/24 03:59:33;;;;;;;5.00;3.00;;;18.90;73.60;;;;;;5114714;27;20035;-46
2022/06/24 04:01:59;;;;;;;4.03;3.20;;;18.90;73.90;;;;;;5132497;27;20367;-45
2022/06/24 04:04:27;;;;;;;6.10;3.72;;;18.90;73.70;;;;;;5129949;27;20027;-45
2022/06/24 04:06:53;;;;;;;6.57;3.45;;;19.00;73.60;;;;;;5121972;27;20039;-47
2022/06/24 04:09:18;;;;;;;4.80;3.10;;;19.00;73.20;;;;;;5111396;27;20039;-46
2022/06/24 04:11:44;;;;;;;5.97;3.30;;;19.00;72.70;;;;;;5111809;28;20023;-51
2022/06/24 04:14:10;;;;;;;4.45;3.10;;;19.10;72.30;;;;;;5113103;27;20027;-45
2022/06/24 04:16:38;;;;;;;7.32;4.15;;;19.10;72.50;;;;;;5131097;27;20027;-45
2022/06/24 04:19:04;;;;;;;4.15;3.10;;;19.10;72.60;;;;;;5130035;27;20143;-45
2022/06/24 04:21:32;;;;;;;3.97;3.15;;;19.20;72.90;;;;;;5131875;27;20439;-45
2022/06/24 04:24:00;;;;;;;3.80;2.80;;;19.20;72.50;;;;;;5117917;27;20015;-46
2022/06/24 04:26:28;;;;;;;7.03;4.28;;;19.20;72.30;;;;;;5132072;27;20023;-45
2022/06/24 04:28:54;;;;;;;6.85;3.15;;;19.30;72.30;;;;;;5114956;27;20448;-45
2022/06/24 04:31:19;;;;;;;7.88;3.78;;;19.30;72.30;;;;;;5111000;28;20132;-45
2022/06/24 04:33:45;;;;;;;10.02;3.75;;;19.40;72.40;;;;;;5111323;28;20040;-45
2022/06/24 04:36:12;;;;;;;5.65;3.05;;;19.40;72.50;;;;;;5111043;28;20103;-47
2022/06/24 04:38:38;;;;;;;7.43;4.05;;;19.40;72.00;;;;;;5120961;27;20023;-46
2022/06/24 04:41:12;;;;;;;5.05;3.17;;;19.40;71.90;;;;;;5098901;27;20058;-49
2022/06/24 04:43:37;;;;;;;6.70;3.40;;;19.50;71.60;;;;;;5118998;27;20367;-47
2022/06/24 04:46:03;;;;;;;6.22;3.33;;;19.50;71.50;;;;;;5120837;27;20023;-46
2022/06/24 04:48:29;;;;;;;6.25;3.33;;;19.50;71.20;;;;;;5102210;27;20092;-47
2022/06/24 04:50:54;;;;;;;3.95;3.05;;;19.50;70.70;;;;;;5121184;27;20110;-45
2022/06/24 04:53:23;;;;;;;6.10;3.47;;;19.60;70.70;;;;;;5118495;27;20099;-45
2022/06/24 04:55:48;;;;;;;4.78;2.97;;;19.60;70.50;;;;;;5121111;27;20027;-46
2022/06/24 04:58:16;;;;;;;5.05;3.38;;;19.70;70.20;;;;;;5120170;27;20656;-45
2022/06/24 05:00:42;;;;;;;6.00;3.45;;;19.80;70.00;;;;;;5119523;27;20032;-45
2022/06/24 05:03:09;;;;;;;5.40;3.25;;;19.80;69.50;;;;;;5118152;27;20020;-46
2022/06/24 05:05:35;;;;;;;8.02;3.75;;;19.80;69.70;;;;;;5101400;27;20035;-46
2022/06/24 05:08:00;;;;;;;4.95;3.30;;;19.80;70.00;;;;;;5118650;27;20019;-47
2022/06/24 05:10:28;;;;;;;4.70;3.05;;;19.80;70.10;;;;;;5119551;27;20126;-45
2022/06/24 05:12:54;;;;;;;5.85;4.03;;;19.90;69.90;;;;;;5119864;27;20044;-46
2022/06/24 05:15:22;;;;;;;5.22;3.50;;;19.90;69.50;;;;;;5103054;27;20039;-45
2022/06/24 05:17:47;;;;;;;5.90;3.15;;;19.90;69.50;;;;;;5123886;27;20424;-45
2022/06/24 05:20:13;;;;;;;6.35;3.30;;;20.00;68.90;;;;;;5131032;27;20027;-46
2022/06/24 05:22:39;;;;;;;5.53;4.43;;;20.00;68.50;;;;;;5123721;27;20023;-49
2022/06/24 05:25:07;;;;;;;4.93;3.40;;;20.00;68.20;;;;;;5117734;27;20023;-47
2022/06/24 05:27:33;;;;;;;4.47;3.05;;;20.10;68.40;;;;;;5115629;27;20027;-45
2022/06/24 05:30:01;;;;;;;5.75;3.80;;;20.10;68.50;;;;;;5126774;27;20032;-45
2022/06/24 05:32:26;;;;;;;5.60;3.78;;;20.20;68.80;;;;;;5121127;27;20037;-46
2022/06/24 05:34:52;;;;;;;4.55;3.45;;;20.30;68.70;;;;;;5119427;27;20530;-47
2022/06/24 05:37:18;;;;;;;4.60;3.20;;;20.40;68.10;;;;;;5119422;27;20031;-46
2022/06/24 05:39:44;;;;;;;3.58;3.05;;;20.60;67.10;;;;;;5100818;27;21296;-45
2022/06/24 05:42:09;;;;;;;4.20;3.30;;;20.80;67.30;;;;;;5117667;27;20027;-45
2022/06/24 05:44:35;;;;;;;4.53;2.75;;;21.00;66.80;;;;;;5117648;27;20090;-45
2022/06/24 05:47:00;;;;;;;4.15;2.95;;;21.20;65.40;;;;;;5093502;27;20034;-47
2022/06/24 05:49:26;;;;;;;3.90;2.97;;;21.50;65.40;;;;;;5099589;28;20406;-46
2022/06/24 05:51:52;;;;;;;4.03;2.70;;;21.90;64.00;;;;;;5096755;27;20041;-48
2022/06/24 05:57:02;;;;;;;6.13;3.22;;;22.30;61.80;;;;;;5131968;27;20022;-46
2022/06/24 05:59:28;;;;;;;8.25;2.65;;;22.90;61.50;;;;;;5131463;27;20112;-47
2022/06/24 06:01:54;;;;;;;6.30;3.75;;;23.10;59.20;;;;;;5127075;27;20106;-46
2022/06/24 06:04:19;;;;;;;3.83;3.03;;;23.30;59.50;;;;;;5117532;27;20027;-47
2022/06/24 06:06:45;;;;;;;4.15;3.13;;;23.20;59.20;;;;;;5096319;27;20042;-46
2022/06/24 06:09:11;;;;;;;8.05;3.65;;;23.20;59.50;;;;;;5116849;27;20020;-49
2022/06/24 06:11:38;;;;;;;6.50;3.50;;;23.20;58.60;;;;;;5119328;28;20031;-46
2022/06/24 06:14:04;;;;;;;5.50;3.70;;;23.30;59.20;;;;;;5117243;28;20030;-46
2022/06/24 06:16:31;;;;;;;6.05;3.45;;;23.30;57.00;;;;;;5119830;28;20023;-49
2022/06/24 06:18:58;;;;;;;4.63;3.33;;;23.30;57.40;;;;;;5119094;28;20043;-46
2022/06/24 06:21:24;;;;;;;5.50;3.95;;;23.30;57.90;;;;;;5121524;28;20038;-47
2022/06/24 06:23:49;;;;;;;6.13;3.72;;;22.90;58.10;;;;;;5129927;27;20436;-46
2022/06/24 06:26:15;;;;;;;6.10;3.25;;;22.60;59.60;;;;;;5138853;27;20030;-46
2022/06/24 06:28:41;;;;;;;8.02;3.72;;;22.50;60.50;;;;;;5139041;27;20060;-46
2022/06/24 06:31:09;;;;;;;4.65;3.70;;;22.30;60.90;;;;;;5136730;27;20038;-46
2022/06/24 06:33:35;;;;;;;4.68;3.45;;;22.10;61.20;;;;;;5105710;27;20038;-47
2022/06/24 06:36:05;;;;;;;9.93;4.25;;;22.00;61.70;;;;;;5126349;27;20043;-49
2022/06/24 06:38:31;;;;;;;6.60;3.67;;;22.10;61.90;;;;;;5109422;28;20084;-46
2022/06/24 06:40:57;;;;;;;4.78;3.50;;;22.30;61.90;;;;;;5108938;28;20066;-48
2022/06/24 06:43:22;;;;;;;7.90;4.43;;;22.40;61.90;;;;;;5108774;28;20065;-47
2022/06/24 06:45:48;;;;;;;7.88;4.45;;;22.60;61.10;;;;;;5114021;28;20464;-46
2022/06/24 06:48:16;;;;;;;12.73;4.05;;;22.40;61.40;;;;;;5122677;28;20027;-47
2022/06/24 06:50:42;;;;;;;6.43;3.63;;;22.30;61.70;;;;;;5123246;28;20031;-46
2022/06/24 06:53:07;;;;;;;5.50;3.92;;;22.10;62.20;;;;;;5090775;28;20057;-46
2022/06/24 06:55:33;;;;;;;5.47;3.80;;;22.10;61.90;;;;;;5070972;28;20035;-47
2022/06/24 06:57:58;;;;;;;6.57;4.20;;;22.20;62.20;;;;;;5088638;28;20028;-46
2022/06/24 07:00:24;;;;;;;5.20;3.28;;;22.60;61.80;;;;;;5092157;28;20038;-46
2022/06/24 07:02:50;;;;;;;5.50;3.72;;;23.00;61.40;;;;;;5099803;28;20024;-47
2022/06/24 07:05:16;;;;;;;6.65;3.70;;;23.40;59.90;;;;;;5087013;28;20463;-47
2022/06/24 07:07:41;;;;;;;4.55;3.10;;;23.90;59.60;;;;;;5092447;28;20024;-46
2022/06/24 07:10:07;;;;;;;5.18;3.08;;;23.90;58.80;;;;;;5091879;28;20447;-47
2022/06/24 07:12:33;;;;;;;5.82;3.75;;;23.70;58.00;;;;;;5092960;28;20035;-49
2022/06/24 07:14:58;;;;;;;5.80;3.53;;;23.60;59.30;;;;;;5080138;28;20032;-47
2022/06/24 07:17:24;;;;;;;7.40;3.97;;;23.40;59.80;;;;;;5101643;28;20027;-46
2022/06/24 07:19:52;;;;;;;4.70;3.30;;;23.40;59.70;;;;;;5100108;28;20410;-46
2022/06/24 07:22:17;;;;;;;6.50;4.32;;;23.70;59.60;;;;;;5099728;28;20457;-47
2022/06/24 07:24:44;;;;;;;7.32;3.78;;;24.10;58.80;;;;;;5091852;28;20082;-47
2022/06/24 07:27:10;;;;;;;5.65;4.03;;;24.00;57.90;;;;;;5091870;28;20452;-46
2022/06/24 07:29:37;;;;;;;8.63;4.15;;;23.80;59.20;;;;;;5091817;28;20074;-46
2022/06/24 07:32:05;;;;;;;6.05;3.70;;;24.30;59.60;;;;;;5092734;28;20371;-48
2022/06/24 07:34:31;;;;;;;5.55;3.67;;;24.90;57.80;;;;;;5074182;28;20070;-46
2022/06/24 07:36:58;;;;;;;7.45;3.47;;;25.50;56.90;;;;;;5092684;28;20036;-45
2022/06/24 07:39:24;;;;;;;6.82;3.92;;;26.00;54.60;;;;;;5087097;28;20384;-46
2022/06/24 07:41:53;;;;;;;5.18;4.03;;;26.40;54.40;;;;;;5091434;28;20028;-47
2022/06/24 07:44:19;;;;;;;6.55;3.70;;;26.80;52.20;;;;;;5077094;28;20028;-47
2022/06/24 07:46:48;;;;;;;7.88;4.68;;;26.90;52.40;;;;;;5105446;28;20330;-46
2022/06/24 07:49:15;;;;;;;6.72;4.47;;;27.10;50.50;;;;;;5091265;28;20035;-46
2022/06/24 07:51:40;;;;;;;8.25;4.28;;;27.10;51.20;;;;;;5091750;28;20028;-45
2022/06/24 07:54:07;;;;;;;5.72;3.95;;;26.40;52.50;;;;;;5099485;28;20173;-46
2022/06/24 07:59:18;;;;;;;6.75;4.47;;;25.30;54.50;;;;;;5118835;27;20093;-45
2022/06/24 08:01:44;;;;;;;8.07;4.65;;;25.50;54.70;;;;;;5121135;27;20023;-45
2022/06/24 08:04:12;;;;;;;8.20;4.28;;;26.30;53.20;;;;;;5121622;27;20034;-45
2022/06/24 08:06:45;;;;;;;6.03;4.43;;;26.90;53.10;;;;;;5103960;27;20020;-46
2022/06/24 08:09:11;;;;;;;7.80;4.80;;;27.50;51.40;;;;;;5119036;27;20091;-49
2022/06/24 08:11:36;;;;;;;9.43;4.65;;;28.10;49.70;;;;;;5118032;27;20023;-46
2022/06/24 08:14:03;;;;;;;7.43;4.28;;;28.30;49.10;;;;;;5121944;27;20076;-50
2022/06/24 08:16:28;;;;;;;13.63;5.18;;;28.60;48.60;;;;;;5119932;27;20020;-48
2022/06/24 08:18:55;;;;;;;10.27;4.90;;;28.60;49.30;;;;;;5116010;27;20024;-47
2022/06/24 08:21:21;;;;;;;7.07;3.83;;;28.80;49.60;;;;;;5111177;28;20115;-46
2022/06/24 08:23:47;;;;;;;8.30;4.95;;;28.80;48.90;;;;;;5111440;27;20524;-46
2022/06/24 08:26:13;;;;;;;7.85;5.25;;;28.80;47.30;;;;;;5111135;28;20028;-46
2022/06/24 08:28:39;;;;;;;8.63;4.63;;;28.60;49.00;;;;;;5094330;28;20080;-46
2022/06/24 08:31:04;;;;;;;10.73;4.95;;;28.90;48.50;;;;;;5129840;27;20045;-49
2022/06/24 08:33:30;;;;;;;7.43;4.85;;;29.30;49.00;;;;;;5101531;27;20034;-46
2022/06/24 08:35:56;;;;;;;7.90;4.95;;;29.30;47.50;;;;;;5116803;27;20036;-46
2022/06/24 08:38:22;;;;;;;7.22;4.80;;;29.20;48.20;;;;;;5110885;27;20042;-46
2022/06/24 08:40:49;;;;;;;10.00;5.35;;;29.40;48.70;;;;;;5110452;27;20027;-47
2022/06/24 08:43:15;;;;;;;9.70;5.03;;;29.50;47.80;;;;;;5092933;28;20028;-46
2022/06/24 08:45:41;;;;;;;6.45;4.70;;;29.60;49.00;;;;;;5119204;27;20082;-48
2022/06/24 08:48:10;;;;;;;10.38;5.00;;;29.40;48.10;;;;;;5124728;27;20224;-48
2022/06/24 08:50:36;;;;;;;8.02;4.97;;;28.90;49.20;;;;;;5120152;27;20024;-46
2022/06/24 08:53:05;;;;;;;8.57;5.78;;;28.70;49.80;;;;;;5130976;27;20039;-49
2022/06/24 08:55:35;;;;;;;10.02;5.25;;;28.90;48.90;;;;;;5094077;28;20048;-46
2022/06/24 08:58:12;;;;;;;7.03;5.65;;;28.90;49.40;;;;;;5091668;28;20039;-47
2022/06/24 09:00:41;;;;;;;8.23;6.07;;;29.10;48.20;;;;;;5091645;28;20123;-48
2022/06/24 09:03:07;;;;;;;6.00;5.20;;;29.10;51.00;;;;;;5093192;28;20031;-46
2022/06/24 09:05:34;;;;;;;10.70;6.70;;;28.90;51.40;;;;;;5109886;28;20027;-48
2022/06/24 09:08:17;;;;;;;7.80;5.15;;;28.80;50.80;;;;;;5100831;28;20137;-47
2022/06/24 09:13:47;;;;;;;7.78;5.78;;;29.80;50.70;;;;;;5089789;28;20038;-51
2022/06/24 09:16:20;;;;;;;8.63;5.93;;;30.20;51.20;;;;;;5102062;28;20507;-49
2022/06/24 09:18:51;;;;;;;9.02;7.28;;;30.30;48.70;;;;;;5094317;28;20403;-46
2022/06/24 09:21:29;;;;;;;8.13;6.97;;;29.90;51.00;;;;;;5071997;28;20322;-46
2022/06/24 09:24:00;;;;;;;9.48;6.85;;;30.20;50.30;;;;;;5089387;28;20157;-48
2022/06/24 09:26:39;;;;;;;10.98;6.75;;;30.40;49.90;;;;;;5089887;28;20024;-48
2022/06/24 09:29:16;;;;;;;7.80;6.28;;;30.50;49.90;;;;;;5097186;28;20106;-50
2022/06/24 09:31:43;;;;;;;10.43;6.85;;;30.70;50.70;;;;;;5092468;28;20470;-46
2022/06/24 09:34:14;;;;;;;8.98;7.45;;;30.90;49.80;;;;;;5089356;28;20024;-48
2022/06/24 09:36:46;;;;;;;10.68;6.75;;;30.60;49.30;;;;;;5072343;28;20095;-46
2022/06/24 09:39:14;;;;;;;6.85;6.18;;;30.60;50.60;;;;;;5101835;28;20111;-46
2022/06/24 09:41:57;;;;;;;8.35;6.70;;;30.90;50.30;;;;;;5089486;28;20024;-47
2022/06/24 09:44:45;;;;;;;12.35;6.07;;;30.90;50.90;;;;;;5091162;28;20031;-47
2022/06/24 09:47:12;;;;;;;8.57;7.57;;;30.60;51.90;;;;;;5109266;28;20608;-46
2022/06/24 09:49:41;;;;;;;11.50;7.85;;;30.40;51.20;;;;;;5088848;28;20047;-46
2022/06/24 09:52:10;;;;;;;12.50;8.13;;;30.10;52.90;;;;;;5072223;28;20020;-50
2022/06/24 09:54:37;;;;;;;14.15;8.10;;;30.30;54.10;;;;;;5081086;28;20053;-46
2022/06/24 09:57:08;;;;;;;8.63;7.53;;;30.10;52.40;;;;;;5089444;28;20044;-46
2022/06/24 10:02:22;;;;;;;13.38;9.13;;;29.50;54.80;;;;;;5111951;27;20023;-47
2022/06/24 10:04:54;;;;;;;8.57;7.68;;;29.40;54.00;;;;;;5111690;28;20332;-46
2022/06/24 10:07:25;;;;;;;10.27;7.95;;;29.40;56.20;;;;;;5130215;27;20482;-46
2022/06/24 10:09:53;;;;;;;9.85;8.73;;;29.40;55.50;;;;;;5110595;27;20039;-47
2022/06/24 10:12:21;;;;;;;9.73;8.73;;;29.30;55.30;;;;;;5110993;27;20333;-46
2022/06/24 10:14:49;;;;;;;10.98;9.30;;;29.30;56.10;;;;;;5108419;27;20043;-49
2022/06/24 10:17:19;;;;;;;10.85;9.02;;;29.00;55.60;;;;;;5120096;28;20016;-48
2022/06/24 10:19:47;;;;;;;14.45;10.52;;;28.40;57.90;;;;;;5087937;28;20127;-46
2022/06/24 10:22:36;;;;;;;10.40;8.38;;;27.90;57.40;;;;;;5115608;28;20019;-46
2022/06/24 10:25:06;;;;;;;10.57;9.02;;;27.70;58.80;;;;;;5088993;28;20035;-47
2022/06/24 10:28:03;;;;;;;11.35;10.25;;;27.50;59.50;;;;;;5092503;28;20020;-46
2022/06/24 10:30:56;;;;;;;11.30;9.60;;;27.40;58.80;;;;;;5088825;28;20024;-48
2022/06/24 10:33:26;;;;;;;13.65;10.95;;;27.30;59.20;;;;;;5090256;27;20019;-46
2022/06/24 10:36:02;;;;;;;12.75;11.48;;;27.10;58.60;;;;;;5096386;28;20115;-45
2022/06/24 10:38:46;;;;;;;13.45;12.25;;;26.90;60.00;;;;;;5117974;27;20023;-45
2022/06/24 10:41:13;;;;;;;18.58;12.82;;;26.50;60.30;;;;;;5092593;28;20134;-48
2022/06/24 10:43:48;;;;;;;12.18;10.95;;;26.10;60.20;;;;;;5091839;28;20027;-46
2022/06/24 10:46:25;;;;;;;14.10;12.43;;;25.90;62.10;;;;;;5111280;27;20355;-47
2022/06/24 10:49:09;;;;;;;14.73;13.30;;;25.60;63.60;;;;;;5116174;27;20035;-46
2022/06/24 10:51:36;;;;;;;14.57;13.27;;;25.60;63.90;;;;;;5111692;28;20042;-46
2022/06/24 10:54:09;;;;;;;13.27;11.90;;;25.80;64.70;;;;;;5113139;28;20055;-45
2022/06/24 10:56:53;;;;;;;15.60;13.95;;;25.70;64.10;;;;;;5111211;28;20027;-48
2022/06/24 10:59:21;;;;;;;13.85;12.23;;;25.80;64.40;;;;;;5099988;27;20023;-47
2022/06/24 11:01:49;;;;;;;12.68;10.77;;;26.00;64.50;;;;;;5106331;27;20024;-45
2022/06/24 11:04:19;;;;;;;12.98;11.30;;;26.00;64.70;;;;;;5102661;27;20131;-49
2022/06/24 11:07:22;;;;;;;13.60;11.20;;;25.90;65.10;;;;;;5111275;27;20034;-46
2022/06/24 11:09:49;;;;;;;14.43;11.88;;;25.70;64.30;;;;;;5092453;28;20047;-45
2022/06/24 11:12:32;;;;;;;13.68;12.27;;;25.40;64.80;;;;;;5098890;27;20092;-45
2022/06/24 11:14:58;;;;;;;11.90;10.70;;;25.10;66.10;;;;;;5121179;27;20114;-45
2022/06/24 11:17:28;;;;;;;12.93;11.65;;;24.90;67.20;;;;;;5105791;27;20031;-46
2022/06/24 11:19:55;;;;;;;13.98;12.68;;;24.60;68.40;;;;;;5112633;28;20024;-45
2022/06/24 11:22:28;;;;;;;12.98;11.88;;;24.40;69.40;;;;;;5095664;27;20028;-47
2022/06/24 11:24:56;;;;;;;14.68;13.13;;;24.20;70.20;;;;;;5064936;28;20151;-46
2022/06/24 11:27:32;;;;;;;16.92;13.68;;;24.20;70.00;;;;;;5105584;27;20471;-46
2022/06/24 11:29:59;;;;;;;15.20;13.75;;;24.10;70.40;;;;;;5091909;28;20456;-47
2022/06/24 11:32:25;;;;;;;15.15;13.73;;;24.30;70.50;;;;;;5083531;28;20032;-46
2022/06/24 11:34:53;;;;;;;17.40;15.50;;;24.20;69.90;;;;;;5108903;27;20039;-45
2022/06/24 11:37:23;;;;;;;15.63;13.73;;;24.10;70.20;;;;;;5111043;27;20037;-45
2022/06/24 11:39:55;;;;;;;15.75;14.18;;;23.90;71.00;;;;;;5098419;28;20424;-46
2022/06/24 11:42:22;;;;;;;17.65;15.90;;;24.00;71.70;;;;;;5103019;27;20127;-46
2022/06/24 11:44:50;;;;;;;15.85;14.45;;;24.10;70.90;;;;;;5121526;27;20332;-45
2022/06/24 11:47:31;;;;;;;15.65;13.05;;;23.90;71.60;;;;;;5128131;27;20030;-47
2022/06/24 11:49:57;;;;;;;14.13;12.63;;;24.20;71.40;;;;;;5091880;28;20107;-47
2022/06/24 11:52:25;;;;;;;13.48;11.75;;;24.20;71.70;;;;;;5112849;27;20102;-50
2022/06/24 11:54:53;;;;;;;14.65;13.13;;;24.30;72.30;;;;;;5132658;27;20043;-45
2022/06/24 11:57:21;;;;;;;15.90;14.48;;;24.00;72.20;;;;;;5122370;27;20057;-46
2022/06/24 11:59:47;;;;;;;17.50;15.90;;;23.80;73.90;;;;;;5126589;27;20027;-46
2022/06/24 12:02:14;;;;;;;19.75;17.98;;;23.50;75.80;;;;;;5126219;27;20031;-45
2022/06/24 12:04:41;;;;;;;20.15;18.25;;;23.20;77.10;;;;;;5128369;27;20027;-44
2022/06/24 12:07:08;;;;;;;19.75;18.05;;;23.00;78.30;;;;;;5113347;27;20047;-45
2022/06/24 12:09:35;;;;;;;20.15;18.33;;;22.90;78.60;;;;;;5125800;27;20028;-46
2022/06/24 12:12:09;;;;;;;19.17;17.38;;;22.80;79.30;;;;;;5111700;27;20099;-44
2022/06/24 12:14:35;;;;;;;20.23;18.30;;;22.80;79.80;;;;;;5116401;27;20038;-44
2022/06/24 12:17:07;;;;;;;21.27;19.17;;;22.70;80.10;;;;;;5097107;27;20027;-46
2022/06/24 12:19:35;;;;;;;20.70;18.95;;;22.70;80.10;;;;;;5108569;28;20553;-46
2022/06/24 12:22:07;;;;;;;20.10;17.38;;;22.70;80.20;;;;;;5111171;28;20088;-44
2022/06/24 12:24:33;;;;;;;23.40;21.17;;;22.70;80.20;;;;;;5114508;27;20026;-45
2022/06/24 12:27:03;;;;;;;20.48;18.63;;;22.60;79.90;;;;;;5131671;27;20035;-44
2022/06/24 12:29:36;;;;;;;19.40;17.65;;;22.60;79.70;;;;;;5109379;27;20420;-45
2022/06/24 12:32:04;;;;;;;19.33;17.70;;;22.50;79.70;;;;;;5104639;28;20031;-45
2022/06/24 12:34:30;;;;;;;19.13;17.30;;;22.50;79.50;;;;;;5128447;27;20038;-45
2022/06/24 12:37:02;;;;;;;19.02;17.27;;;22.50;79.00;;;;;;5131524;27;20055;-45
2022/06/24 12:39:33;;;;;;;19.55;17.67;;;22.40;78.90;;;;;;5112933;27;20428;-45
2022/06/24 12:42:02;;;;;;;19.73;17.92;;;22.40;78.90;;;;;;5112491;27;20035;-45
2022/06/24 12:44:46;;;;;;;18.23;16.58;;;22.40;78.90;;;;;;5120161;27;20076;-46
2022/06/24 12:52:55;;;;;;;19.70;17.67;;;22.50;78.60;;;;;;5110802;28;20107;-45
2022/06/24 12:55:21;;;;;;;16.27;14.88;;;22.60;77.50;;;;;;5110460;27;20100;-45
2022/06/24 12:57:46;;;;;;;18.40;16.80;;;22.70;77.50;;;;;;5110096;28;20033;-46
2022/06/24 13:00:15;;;;;;;19.05;17.35;;;22.80;78.10;;;;;;5110624;27;20188;-45
2022/06/24 13:02:52;;;;;;;20.27;18.27;;;22.80;78.00;;;;;;5122325;27;20124;-46
2022/06/24 13:05:21;;;;;;;19.30;17.52;;;22.80;77.30;;;;;;5110670;28;20305;-45
2022/06/24 13:07:48;;;;;;;17.00;15.38;;;22.70;77.50;;;;;;5110830;28;20023;-46
2022/06/24 13:10:14;;;;;;;16.38;14.73;;;22.60;78.20;;;;;;5092187;28;20028;-45